createdAt,value
2024-01-06T00:01:54.652Z,0
2024-01-06T00:07:18.300Z,0
2024-01-06T00:12:42.917Z,0
2024-01-06T00:18:31.801Z,0
2024-01-06T00:23:58.239Z,0
2024-01-06T00:29:41.623Z,0
2024-01-06T00:35:06.115Z,3.6
2024-01-06T00:46:16.679Z,4.8
2024-01-06T00:51:40.644Z,3.6
2024-01-06T00:57:21.642Z,3.6
2024-01-06T01:02:53.234Z,0
2024-01-06T01:08:16.037Z,0
2024-01-06T01:14:16.737Z,4.8
2024-01-06T01:19:40.136Z,2.4
2024-01-06T01:30:45.413Z,7.2
2024-01-06T01:36:11.514Z,2.4
2024-01-06T01:41:56.121Z,0
2024-01-06T01:47:38.780Z,0
2024-01-06T01:52:49.578Z,2.4
2024-01-06T01:58:29.959Z,0
2024-01-06T02:03:58.311Z,3.6
2024-01-06T02:09:36.614Z,9.6
2024-01-06T02:15:22.781Z,10.7
2024-01-06T02:26:26.512Z,0
2024-01-06T02:32:07.634Z,0
2024-01-06T02:37:35.009Z,0
2024-01-06T02:42:58.646Z,0
2024-01-06T02:48:26.368Z,0
2024-01-06T02:53:58.328Z,0
2024-01-06T02:59:44.346Z,0
2024-01-06T03:10:48.442Z,0
2024-01-06T03:16:41.988Z,0
2024-01-06T03:22:02.688Z,0
2024-01-06T03:27:30.431Z,0
2024-01-06T03:33:13.026Z,0
2024-01-06T03:38:52.065Z,0
2024-01-06T03:44:18.361Z,0
2024-01-06T03:49:54.745Z,0
2024-01-06T03:55:09.740Z,0
2024-01-06T04:00:56.118Z,0
2024-01-06T04:06:31.637Z,0
2024-01-06T04:11:58.471Z,0
2024-01-06T04:17:49.564Z,0
2024-01-06T04:22:57.203Z,0
2024-01-06T04:28:54.920Z,0
2024-01-06T04:34:16.948Z,4.8
2024-01-06T04:39:38.170Z,0
2024-01-06T04:45:38.142Z,0
2024-01-06T04:51:13.113Z,0
2024-01-06T04:56:36.734Z,0
2024-01-06T05:01:57.430Z,0
2024-01-06T05:07:38.382Z,0
2024-01-06T05:13:06.895Z,0
2024-01-06T05:18:59.330Z,0
2024-01-06T05:24:05.969Z,0
2024-01-06T05:29:38.845Z,0
2024-01-06T05:35:31.109Z,0
2024-01-06T05:46:23.379Z,0
2024-01-06T05:52:17.957Z,0
2024-01-06T05:57:34.745Z,0
2024-01-06T06:03:24.738Z,0
2024-01-06T06:08:34.886Z,0
2024-01-06T06:14:12.505Z,0
2024-01-06T06:19:56.456Z,0
2024-01-06T06:25:24.600Z,0
2024-01-06T06:31:01.851Z,0
2024-01-06T06:36:46.302Z,0
2024-01-06T06:41:59.756Z,0
2024-01-06T06:47:35.515Z,0
2024-01-06T06:53:06.056Z,0
2024-01-06T06:58:49.091Z,0
2024-01-06T07:04:25.857Z,0
2024-01-06T07:09:48.930Z,0
2024-01-06T07:21:12.885Z,0
2024-01-06T07:26:43.894Z,0
2024-01-06T07:32:22.562Z,0
2024-01-06T07:37:31.802Z,0
2024-01-06T07:43:26.476Z,0
2024-01-06T07:48:44.275Z,0
2024-01-06T07:54:11.641Z,0
2024-01-06T07:59:53.911Z,0
2024-01-06T08:05:35.931Z,0
2024-01-06T08:10:53.693Z,0
2024-01-06T08:16:40.293Z,0
2024-01-06T08:22:09.548Z,0
2024-01-06T08:27:36.757Z,0
2024-01-06T08:33:21.755Z,0
2024-01-06T08:38:57.986Z,0
2024-01-06T08:44:13.571Z,4.8
2024-01-06T08:50:01.979Z,5.9
2024-01-06T09:01:18.180Z,0
2024-01-06T09:06:43.556Z,0
2024-01-06T09:12:10.094Z,0
2024-01-06T09:18:03.530Z,0
2024-01-06T09:23:31.667Z,0
2024-01-06T09:28:42.031Z,0
2024-01-06T09:34:26.970Z,0
2024-01-06T09:39:51.210Z,0
2024-01-06T09:45:24.242Z,0
2024-01-06T10:13:40.696Z,9.6
2024-01-06T10:19:05.796Z,9.6
2024-01-06T10:24:44.156Z,13.2
2024-01-06T10:30:08.055Z,14.4
2024-01-06T10:35:48.828Z,16.8
2024-01-06T10:41:28.038Z,14.4
2024-01-06T10:46:56.644Z,18
2024-01-06T10:52:19.832Z,10.7
2024-01-06T10:57:58.282Z,9.6
2024-01-06T11:03:30.410Z,13.2
2024-01-06T11:09:03.717Z,13.2
2024-01-06T11:14:58.488Z,16.8
2024-01-06T11:25:58.613Z,11.9
2024-01-06T11:31:42.156Z,14.4
2024-01-06T11:37:23.418Z,16.8
2024-01-06T11:48:10.935Z,16.8
2024-01-06T11:53:51.456Z,16.8
2024-01-06T13:29:23.231Z,15.6
2024-01-06T13:34:48.780Z,19.2
2024-01-06T13:40:16.356Z,14.4
2024-01-06T14:02:39.103Z,10.7
2024-01-06T14:08:23.220Z,10.7
2024-01-06T14:13:56.142Z,10.7
2024-01-06T14:25:17.867Z,9.6
2024-01-06T14:36:11.684Z,9.6
2024-01-06T14:41:52.871Z,9.6
2024-01-06T14:47:36.675Z,8.4
2024-01-06T14:53:00.804Z,8.4
2024-01-06T14:58:39.251Z,0
2024-01-06T15:04:24.742Z,5.9
2024-01-06T15:37:37.083Z,0
2024-01-06T15:54:14.361Z,2.4
2024-01-06T16:00:09.389Z,2.4
2024-01-06T16:11:06.693Z,2.4
2024-01-06T17:23:42.984Z,8.4
2024-01-06T22:25:25.283Z,0
